createdAt,value
2022-11-02T00:00:42.081Z,14.80
2022-11-02T00:03:09.548Z,14.50
2022-11-02T00:05:36.616Z,14.40
2022-11-02T00:08:03.990Z,14.50
2022-11-02T00:10:30.882Z,14.30
2022-11-02T00:12:58.020Z,14.20
2022-11-02T00:15:27.832Z,14.20
2022-11-02T00:17:58.696Z,14.10
2022-11-02T00:20:29.360Z,14.10
2022-11-02T00:22:59.027Z,14.10
2022-11-02T00:25:28.128Z,14.10
2022-11-02T00:27:55.159Z,14.10
2022-11-02T00:30:22.126Z,14.10
2022-11-02T00:32:50.040Z,13.90
2022-11-02T00:35:16.742Z,13.80
2022-11-02T00:37:43.572Z,13.80
2022-11-02T00:40:11.224Z,13.70
2022-11-02T00:42:37.995Z,13.80
2022-11-02T00:45:05.866Z,13.70
2022-11-02T00:47:33.276Z,13.70
2022-11-02T00:50:00.064Z,13.60
2022-11-02T00:52:27.401Z,13.90
2022-11-02T00:54:54.526Z,13.70
2022-11-02T00:57:21.525Z,13.60
2022-11-02T00:59:48.593Z,13.60
2022-11-02T01:02:16.781Z,13.60
2022-11-02T01:04:43.958Z,13.60
2022-11-02T01:07:10.809Z,13.60
2022-11-02T01:09:37.631Z,13.60
2022-11-02T01:12:05.364Z,13.70
2022-11-02T01:14:32.421Z,13.80
2022-11-02T01:16:59.741Z,13.90
2022-11-02T01:19:26.745Z,13.80
2022-11-02T01:21:53.643Z,13.90
2022-11-02T01:24:21.436Z,13.70
2022-11-02T01:26:53.198Z,13.80
2022-11-02T01:29:20.137Z,13.80
2022-11-02T01:31:46.927Z,13.70
2022-11-02T01:34:14.141Z,13.70
2022-11-02T01:36:41.855Z,13.70
2022-11-02T01:39:09.654Z,13.70
2022-11-02T01:41:36.429Z,13.70
2022-11-02T01:44:04.221Z,13.70
2022-11-02T01:46:45.579Z,13.80
2022-11-02T01:49:19.433Z,13.80
2022-11-02T01:51:56.764Z,13.70
2022-11-02T01:54:27.321Z,13.70
2022-11-02T01:56:58.110Z,13.60
2022-11-02T01:59:30.841Z,13.70
2022-11-02T02:01:57.931Z,13.70
2022-11-02T02:04:28.028Z,13.50
2022-11-02T02:06:58.912Z,13.60
2022-11-02T02:09:26.608Z,13.50
2022-11-02T02:11:53.388Z,13.50
2022-11-02T02:14:21.228Z,13.40
2022-11-02T02:17:20.728Z,13.50
2022-11-02T02:20:14.056Z,13.40
2022-11-02T02:22:47.343Z,13.40
2022-11-02T02:25:48.070Z,13.20
2022-11-02T02:28:37.635Z,13.30
2022-11-02T02:31:11.177Z,13.30
2022-11-02T02:33:53.636Z,13.30
2022-11-02T02:36:32.772Z,13.40
2022-11-02T02:39:12.456Z,13.20
2022-11-02T02:41:44.910Z,13.30
2022-11-02T02:44:20.604Z,13.30
2022-11-02T02:47:00.766Z,13.20
2022-11-02T02:50:07.439Z,13.30
2022-11-02T02:52:37.563Z,13.30
2022-11-02T02:55:06.722Z,13.40
2022-11-02T02:57:35.291Z,13.50
2022-11-02T03:00:02.115Z,13.70
2022-11-02T03:02:37.382Z,13.60
2022-11-02T03:05:33.101Z,13.60
2022-11-02T03:08:09.887Z,13.70
2022-11-02T03:10:49.335Z,13.60
2022-11-02T03:13:42.683Z,13.60
2022-11-02T03:16:32.224Z,13.50
2022-11-02T03:19:09.681Z,13.50
2022-11-02T03:21:44.720Z,13.50
2022-11-02T03:24:26.617Z,13.40
2022-11-02T03:27:35.222Z,13.40
2022-11-02T03:30:13.496Z,13.30
2022-11-02T03:32:49.797Z,13.40
2022-11-02T03:35:27.505Z,13.50
2022-11-02T03:38:26.368Z,13.50
2022-11-02T03:40:55.601Z,13.50
2022-11-02T03:43:24.907Z,13.60
2022-11-02T03:45:57.175Z,13.70
2022-11-02T03:48:30.191Z,13.50
2022-11-02T03:51:02.803Z,13.40
2022-11-02T03:53:46.262Z,13.40
2022-11-02T03:56:37.528Z,13.40
2022-11-02T03:59:04.515Z,13.40
2022-11-02T04:01:38.959Z,13.30
2022-11-02T04:04:06.196Z,13.30
2022-11-02T04:06:34.425Z,13.30
2022-11-02T04:09:01.454Z,13.30
2022-11-02T04:11:49.118Z,13.20
2022-11-02T04:14:34.524Z,13.10
2022-11-02T04:17:21.216Z,13.00
2022-11-02T04:19:51.605Z,13.00
2022-11-02T04:22:39.611Z,12.90
2022-11-02T04:25:21.355Z,12.90
2022-11-02T04:28:08.508Z,12.90
2022-11-02T04:30:40.407Z,12.90
2022-11-02T04:33:26.961Z,12.80
2022-11-02T04:36:05.370Z,13.00
2022-11-02T04:38:42.665Z,12.80
2022-11-02T04:41:41.620Z,12.80
2022-11-02T04:44:31.692Z,12.70
2022-11-02T04:47:12.191Z,12.70
2022-11-02T04:49:39.088Z,12.70
2022-11-02T04:52:11.968Z,12.70
2022-11-02T04:54:44.623Z,12.60
2022-11-02T04:57:11.541Z,12.60
2022-11-02T04:59:38.383Z,12.50
2022-11-02T05:02:06.568Z,12.40
2022-11-02T05:04:35.043Z,12.40
2022-11-02T05:07:06.284Z,12.40
2022-11-02T05:09:35.278Z,12.30
2022-11-02T05:12:05.036Z,12.40
2022-11-02T05:14:33.061Z,12.30
2022-11-02T05:17:01.537Z,12.30
2022-11-02T05:19:28.588Z,12.20
2022-11-02T05:21:55.529Z,12.20
2022-11-02T05:24:24.097Z,12.30
2022-11-02T05:26:53.957Z,12.30
2022-11-02T05:29:23.546Z,12.30
2022-11-02T05:31:53.138Z,12.20
2022-11-02T05:34:20.271Z,12.10
2022-11-02T05:36:51.181Z,12.10
2022-11-02T05:39:18.383Z,12.10
2022-11-02T05:41:45.116Z,11.90
2022-11-02T05:44:38.685Z,12.00
2022-11-02T05:47:05.734Z,12.00
2022-11-02T05:49:32.456Z,12.00
2022-11-02T05:51:59.232Z,12.10
2022-11-02T05:54:26.241Z,12.00
2022-11-02T05:56:53.044Z,12.00
2022-11-02T05:59:19.844Z,11.90
2022-11-02T06:01:46.745Z,11.90
2022-11-02T06:04:13.605Z,11.90
2022-11-02T06:06:40.503Z,11.80
2022-11-02T06:09:07.625Z,11.70
2022-11-02T06:11:34.888Z,11.80
2022-11-02T06:14:03.552Z,11.80
2022-11-02T06:16:30.997Z,11.80
2022-11-02T06:18:57.962Z,11.80
2022-11-02T06:21:24.706Z,11.80
2022-11-02T06:23:51.675Z,11.80
2022-11-02T06:26:18.475Z,11.70
2022-11-02T06:28:45.350Z,11.70
2022-11-02T06:31:13.484Z,11.60
2022-11-02T06:33:40.171Z,11.60
2022-11-02T06:36:07.290Z,11.60
2022-11-02T06:38:34.165Z,11.60
2022-11-02T06:41:10.541Z,11.60
2022-11-02T06:43:47.748Z,11.60
2022-11-02T06:46:14.719Z,11.60
2022-11-02T06:48:41.643Z,11.50
2022-11-02T06:51:08.498Z,11.50
2022-11-02T06:53:35.336Z,11.60
2022-11-02T06:56:02.224Z,11.60
2022-11-02T06:58:29.387Z,11.50
2022-11-02T07:01:05.655Z,11.50
2022-11-02T07:03:32.491Z,11.50
2022-11-02T07:05:59.655Z,11.50
2022-11-02T07:08:27.446Z,11.40
2022-11-02T07:10:54.860Z,11.50
2022-11-02T07:13:22.187Z,11.50
2022-11-02T07:15:53.231Z,11.60
2022-11-02T07:18:20.312Z,11.60
2022-11-02T07:20:47.064Z,11.60
2022-11-02T07:23:13.861Z,11.60
2022-11-02T07:25:41.471Z,11.60
2022-11-02T07:28:08.463Z,11.60
2022-11-02T07:30:35.542Z,11.80
2022-11-02T07:33:03.092Z,11.70
2022-11-02T07:35:30.623Z,11.70
2022-11-02T07:37:59.694Z,11.70
2022-11-02T07:40:27.837Z,11.80
2022-11-02T07:42:54.747Z,11.60
2022-11-02T07:45:30.221Z,11.80
2022-11-02T07:47:57.269Z,11.80
2022-11-02T07:50:26.939Z,11.80
2022-11-02T07:52:58.190Z,11.80
2022-11-02T07:55:30.048Z,11.90
2022-11-02T07:58:07.912Z,11.90
2022-11-02T08:00:41.464Z,11.90
2022-11-02T08:03:11.149Z,12.00
2022-11-02T08:05:40.495Z,12.10
2022-11-02T08:08:15.536Z,12.10
2022-11-02T08:10:43.168Z,12.20
2022-11-02T08:13:12.326Z,12.30
2022-11-02T08:15:39.304Z,12.30
2022-11-02T08:18:11.967Z,12.40
2022-11-02T08:20:39.192Z,12.40
2022-11-02T08:23:07.610Z,12.40
2022-11-02T08:25:35.373Z,12.50
2022-11-02T08:28:03.435Z,12.70
2022-11-02T08:30:31.923Z,12.60
2022-11-02T08:33:04.506Z,12.70
2022-11-02T08:35:32.460Z,12.70
2022-11-02T08:38:03.190Z,12.80
2022-11-02T08:40:30.616Z,12.80
2022-11-02T08:42:59.222Z,12.90
2022-11-02T08:45:53.829Z,12.90
2022-11-02T08:48:17.634Z,13.10
2022-11-02T08:50:44.485Z,13.10
2022-11-02T08:53:12.204Z,13.20
2022-11-02T08:55:39.305Z,13.30
2022-11-02T08:58:06.873Z,13.30
2022-11-02T09:00:35.054Z,13.60
2022-11-02T09:03:05.039Z,13.50
2022-11-02T09:05:44.612Z,13.50
2022-11-02T09:08:19.534Z,13.50
2022-11-02T09:10:52.310Z,13.60
2022-11-02T09:13:24.933Z,13.70
2022-11-02T09:15:54.038Z,13.70
2022-11-02T09:18:21.435Z,14.00
2022-11-02T09:20:49.531Z,13.90
2022-11-02T09:23:17.331Z,14.10
2022-11-02T09:25:44.307Z,14.30
2022-11-02T09:28:11.351Z,15.00
2022-11-02T09:30:38.462Z,15.70
2022-11-02T09:33:06.789Z,15.70
2022-11-02T09:35:36.683Z,15.50
2022-11-02T09:38:03.979Z,15.20
2022-11-02T09:40:44.832Z,15.00
2022-11-02T09:43:30.976Z,15.00
2022-11-02T09:46:09.381Z,15.30
2022-11-02T09:48:47.915Z,15.40
2022-11-02T09:51:19.119Z,15.60
2022-11-02T09:54:13.110Z,15.60
2022-11-02T09:56:43.074Z,15.40
2022-11-02T09:59:22.763Z,15.30
2022-11-02T10:01:56.027Z,15.20
2022-11-02T10:04:58.032Z,15.30
2022-11-02T10:07:54.365Z,15.40
2022-11-02T10:10:34.553Z,16.10
2022-11-02T10:13:18.430Z,16.10
2022-11-02T10:15:59.402Z,15.90
2022-11-02T10:18:29.859Z,15.80
2022-11-02T10:20:59.765Z,15.80
2022-11-02T10:23:52.181Z,15.90
2022-11-02T10:26:36.714Z,15.90
2022-11-02T10:29:14.974Z,15.90
2022-11-02T10:31:43.242Z,16.10
2022-11-02T10:34:27.153Z,16.20
2022-11-02T10:37:39.770Z,16.20
2022-11-02T10:40:20.092Z,16.20
2022-11-02T10:43:24.199Z,16.10
2022-11-02T10:46:26.304Z,16.10
2022-11-02T10:49:29.376Z,16.20
2022-11-02T10:51:56.199Z,16.20
2022-11-02T10:54:29.320Z,16.20
2022-11-02T10:57:15.514Z,16.20
2022-11-02T10:59:42.556Z,16.30
2022-11-02T11:02:14.497Z,16.30
2022-11-02T11:04:42.138Z,16.30
2022-11-02T11:07:24.772Z,16.30
2022-11-02T11:09:56.770Z,16.30
2022-11-02T11:12:30.397Z,16.30
2022-11-02T11:20:39.067Z,16.60
2022-11-02T11:23:22.224Z,16.60
2022-11-02T11:26:01.262Z,16.60
2022-11-02T11:28:37.948Z,16.50
2022-11-02T11:31:07.164Z,16.50
2022-11-02T11:33:45.340Z,16.50
2022-11-02T11:36:23.392Z,16.60
2022-11-02T11:38:51.704Z,16.80
2022-11-02T11:41:18.793Z,17.10
2022-11-02T11:43:47.203Z,17.20
2022-11-02T11:46:16.275Z,17.10
2022-11-02T11:48:53.671Z,17.10
2022-11-02T11:51:26.791Z,17.20
2022-11-02T11:54:24.675Z,16.80
2022-11-02T11:56:57.844Z,16.80
2022-11-02T11:59:32.086Z,16.70
2022-11-02T12:02:01.860Z,16.60
2022-11-02T12:04:34.882Z,16.40
2022-11-02T12:07:27.878Z,16.20
2022-11-02T12:10:02.702Z,16.20
2022-11-02T12:12:37.359Z,16.20
2022-11-02T12:15:16.976Z,16.20
2022-11-02T12:18:01.263Z,16.20
2022-11-02T12:20:45.627Z,16.30
2022-11-02T12:23:25.371Z,16.30
2022-11-02T12:26:14.590Z,16.30
2022-11-02T12:28:56.261Z,16.50
2022-11-02T12:31:45.699Z,16.20
2022-11-02T12:34:19.566Z,16.30
2022-11-02T12:37:31.638Z,16.20
2022-11-02T12:40:00.820Z,16.30
2022-11-02T12:42:57.391Z,16.40
2022-11-02T12:45:43.471Z,16.50
2022-11-02T12:48:23.750Z,16.70
2022-11-02T12:51:08.753Z,16.80
2022-11-02T12:53:46.918Z,16.80
2022-11-02T12:56:34.727Z,16.70
2022-11-02T12:59:01.676Z,16.80
2022-11-02T13:01:35.825Z,16.90
2022-11-02T13:04:08.150Z,17.00
2022-11-02T13:06:41.144Z,17.00
2022-11-02T13:09:12.398Z,17.00
2022-11-02T13:11:56.484Z,17.50
2022-11-02T13:14:27.619Z,17.20
2022-11-02T13:17:15.695Z,17.20
2022-11-02T13:19:56.136Z,17.20
2022-11-02T13:22:32.711Z,17.00
2022-11-02T13:25:21.821Z,16.80
2022-11-02T13:28:04.267Z,16.70
2022-11-02T13:30:33.704Z,16.70
2022-11-02T13:33:08.626Z,17.00
2022-11-02T13:35:40.854Z,17.10
2022-11-02T13:38:26.459Z,17.10
2022-11-02T13:41:18.513Z,17.00
2022-11-02T13:44:33.880Z,17.10
2022-11-02T13:47:41.307Z,17.20
2022-11-02T13:50:13.920Z,17.60
2022-11-02T13:52:45.748Z,18.20
2022-11-02T13:55:46.285Z,18.50
2022-11-02T13:58:36.943Z,18.70
2022-11-02T14:01:10.016Z,18.50
2022-11-02T14:03:42.711Z,18.70
2022-11-02T14:06:11.736Z,19.00
2022-11-02T14:08:42.172Z,19.10
2022-11-02T14:11:17.755Z,19.00
2022-11-02T14:13:59.147Z,18.90
2022-11-02T14:16:45.859Z,18.90
2022-11-02T14:19:20.440Z,19.00
2022-11-02T14:21:52.479Z,19.10
2022-11-02T14:24:34.607Z,19.20
2022-11-02T14:27:11.944Z,19.20
2022-11-02T14:29:42.436Z,19.30
2022-11-02T14:32:26.642Z,19.40
2022-11-02T14:35:04.299Z,19.40
2022-11-02T14:37:52.759Z,19.40
2022-11-02T14:40:28.658Z,19.20
2022-11-02T14:43:13.274Z,18.70
2022-11-02T14:45:44.048Z,18.00
2022-11-02T14:48:18.318Z,17.60
2022-11-02T14:51:02.716Z,17.00
2022-11-02T14:53:34.531Z,16.60
2022-11-02T14:56:01.735Z,16.40
2022-11-02T14:58:58.531Z,16.20
2022-11-02T15:01:25.528Z,16.10
2022-11-02T15:03:53.008Z,16.00
2022-11-02T15:06:29.042Z,15.80
2022-11-02T15:09:00.367Z,15.90
2022-11-02T15:11:42.589Z,15.70
2022-11-02T15:14:51.505Z,15.80
2022-11-02T15:17:18.214Z,15.80
2022-11-02T15:19:47.268Z,15.90
2022-11-02T15:22:32.205Z,15.80
2022-11-02T15:25:09.457Z,15.80
2022-11-02T15:27:39.036Z,15.70
2022-11-02T15:30:06.966Z,15.70
2022-11-02T15:32:40.715Z,15.60
2022-11-02T15:35:14.198Z,15.50
2022-11-02T15:38:03.539Z,15.40
2022-11-02T15:40:48.559Z,15.30
2022-11-02T15:43:46.672Z,15.30
2022-11-02T15:46:38.030Z,15.20
2022-11-02T15:49:43.441Z,15.20
2022-11-02T15:52:22.623Z,15.10
2022-11-02T15:55:10.554Z,15.00
2022-11-02T15:57:49.642Z,15.00
2022-11-02T16:00:29.967Z,14.90
2022-11-02T16:03:07.107Z,14.80
2022-11-02T16:05:44.220Z,14.70
2022-11-02T16:08:31.334Z,14.70
2022-11-02T16:11:05.758Z,14.60
2022-11-02T16:13:55.715Z,14.60
2022-11-02T16:16:34.673Z,14.50
2022-11-02T16:19:02.775Z,14.50
2022-11-02T16:22:00.929Z,14.40
2022-11-02T16:24:33.558Z,14.30
2022-11-02T16:27:04.176Z,14.30
2022-11-02T16:29:38.774Z,14.20
2022-11-02T16:32:10.840Z,14.20
2022-11-02T16:34:38.755Z,14.10
2022-11-02T16:37:10.342Z,14.10
2022-11-02T16:39:41.782Z,14.10
2022-11-02T16:42:18.049Z,14.00
2022-11-02T16:44:57.490Z,14.00
2022-11-02T16:47:42.746Z,13.80
2022-11-02T16:50:24.341Z,13.80
2022-11-02T16:53:01.460Z,13.80
2022-11-02T16:55:45.744Z,13.90
2022-11-02T16:58:23.514Z,13.90
2022-11-02T17:01:05.598Z,13.90
2022-11-02T17:03:34.483Z,13.80
2022-11-02T17:06:05.746Z,13.80
2022-11-02T17:08:36.729Z,13.80
2022-11-02T17:11:05.652Z,13.90
2022-11-02T17:13:38.653Z,13.90
2022-11-02T17:16:10.078Z,14.00
2022-11-02T17:18:37.474Z,13.80
2022-11-02T17:21:13.373Z,13.80
2022-11-02T17:23:45.273Z,13.80
2022-11-02T17:26:24.750Z,14.00
2022-11-02T17:28:54.536Z,13.70
2022-11-02T17:31:22.945Z,13.80
2022-11-02T17:33:50.723Z,14.00
2022-11-02T17:36:22.141Z,13.80
2022-11-02T17:38:52.580Z,13.90
2022-11-02T17:42:11.195Z,13.70
2022-11-02T17:44:38.047Z,13.90
2022-11-02T17:47:12.939Z,13.70
2022-11-02T17:49:40.131Z,13.50
2022-11-02T17:52:11.536Z,13.60
2022-11-02T17:54:38.465Z,13.60
2022-11-02T17:57:11.261Z,13.50
2022-11-02T17:59:38.223Z,13.60
2022-11-02T18:02:12.372Z,13.60
2022-11-02T18:04:45.304Z,13.70
2022-11-02T18:07:12.268Z,13.60
2022-11-02T18:10:04.298Z,13.50
2022-11-02T18:12:31.138Z,13.50
2022-11-02T18:14:57.960Z,13.40
2022-11-02T18:17:24.613Z,13.40
2022-11-02T18:19:52.354Z,13.30
2022-11-02T18:22:23.565Z,13.30
2022-11-02T18:27:52.872Z,13.30
2022-11-02T18:30:19.756Z,13.30
2022-11-02T18:32:47.056Z,13.30
2022-11-02T18:35:20.032Z,13.40
2022-11-02T18:37:47.360Z,13.30
2022-11-02T18:40:38.903Z,13.50
2022-11-02T18:43:05.916Z,13.50
2022-11-02T18:45:33.129Z,13.50
2022-11-02T18:48:00.595Z,13.50
2022-11-02T18:50:27.468Z,13.50
2022-11-02T18:52:54.133Z,13.80
2022-11-02T18:55:24.000Z,13.50
2022-11-02T18:57:54.924Z,13.50
2022-11-02T19:00:21.772Z,13.80
2022-11-02T19:02:48.571Z,13.60
2022-11-02T19:05:34.162Z,12.90
2022-11-02T19:08:19.644Z,13.40
2022-11-02T19:10:48.554Z,13.40
2022-11-02T19:13:17.000Z,13.40
2022-11-02T19:15:43.885Z,13.40
2022-11-02T19:18:11.111Z,13.50
2022-11-02T19:20:37.987Z,13.70
2022-11-02T19:23:04.812Z,13.40
2022-11-02T19:25:31.845Z,13.40
2022-11-02T19:27:59.370Z,13.40
2022-11-02T19:30:26.900Z,13.60
2022-11-02T19:32:54.988Z,13.40
2022-11-02T19:35:21.697Z,13.40
2022-11-02T19:37:50.966Z,13.70
2022-11-02T19:40:17.732Z,13.50
2022-11-02T19:42:44.526Z,13.50
2022-11-02T19:45:16.490Z,13.40
2022-11-02T19:47:44.036Z,13.40
2022-11-02T19:50:11.091Z,13.50
2022-11-02T19:52:37.825Z,13.40
2022-11-02T19:55:06.363Z,13.60
2022-11-02T19:57:33.571Z,13.50
2022-11-02T20:00:00.471Z,13.50
2022-11-02T20:02:27.383Z,13.50
2022-11-02T20:04:54.276Z,13.80
2022-11-02T20:07:21.066Z,13.70
2022-11-02T20:09:47.831Z,13.80
2022-11-02T20:12:14.672Z,13.70
2022-11-02T20:14:41.862Z,13.10
2022-11-02T20:17:30.007Z,13.90
2022-11-02T20:19:55.663Z,13.50
2022-11-02T20:22:22.628Z,13.50
2022-11-02T20:24:49.540Z,13.90
2022-11-02T20:27:16.243Z,13.60
2022-11-02T20:29:43.057Z,13.50
2022-11-02T20:32:10.345Z,13.80
2022-11-02T20:34:37.244Z,13.30
2022-11-02T20:37:05.018Z,13.50
2022-11-02T20:39:34.312Z,13.60
2022-11-02T20:42:01.222Z,13.50
2022-11-02T20:44:28.109Z,13.50
2022-11-02T20:46:54.876Z,13.80
2022-11-02T20:49:44.251Z,13.70
2022-11-02T20:52:09.952Z,13.30
2022-11-02T20:54:37.120Z,13.40
2022-11-02T20:57:03.986Z,13.50
2022-11-02T20:59:30.717Z,13.50
2022-11-02T21:01:57.696Z,13.80
2022-11-02T21:04:25.698Z,13.40
2022-11-02T21:06:53.540Z,12.90
2022-11-02T21:09:21.814Z,13.40
2022-11-02T21:12:07.093Z,13.40
2022-11-02T21:14:33.916Z,13.60
2022-11-02T21:17:02.605Z,13.50
2022-11-02T21:19:29.456Z,13.50
2022-11-02T21:21:59.688Z,13.70
2022-11-02T21:24:28.973Z,13.40
2022-11-02T21:26:56.140Z,13.50
2022-11-02T21:29:23.038Z,13.50
2022-11-02T21:31:50.081Z,13.50
2022-11-02T21:34:16.885Z,13.90
2022-11-02T21:36:43.707Z,13.50
2022-11-02T21:39:10.585Z,13.40
2022-11-02T21:41:38.822Z,13.40
2022-11-02T21:44:18.182Z,13.40
2022-11-02T21:46:45.104Z,13.40
2022-11-02T21:49:47.501Z,13.30
2022-11-02T21:52:25.917Z,13.30
2022-11-02T21:54:52.932Z,13.30
2022-11-02T21:57:21.259Z,13.50
2022-11-02T22:00:13.611Z,13.40
2022-11-02T22:02:40.536Z,13.50
2022-11-02T22:05:07.709Z,13.40
2022-11-02T22:07:55.879Z,13.50
2022-11-02T22:10:22.965Z,13.40
2022-11-02T22:13:08.666Z,13.40
2022-11-02T22:15:38.396Z,13.40
2022-11-02T22:18:05.545Z,13.40
2022-11-02T22:20:32.533Z,13.40
2022-11-02T22:23:00.060Z,13.40
2022-11-02T22:25:26.933Z,13.40
2022-11-02T22:27:53.770Z,13.30
2022-11-02T22:30:22.011Z,13.70
2022-11-02T22:32:48.994Z,13.40
2022-11-02T22:35:16.391Z,13.40
2022-11-02T22:38:01.632Z,13.40
2022-11-02T22:40:29.377Z,13.40
2022-11-02T22:42:56.239Z,13.30
2022-11-02T22:45:23.077Z,13.40
2022-11-02T22:47:49.924Z,13.40
2022-11-02T22:50:16.812Z,13.50
2022-11-02T22:52:43.819Z,13.50
2022-11-02T22:55:12.329Z,13.40
2022-11-02T22:57:39.186Z,13.60
2022-11-02T23:00:06.599Z,13.40
2022-11-02T23:02:42.410Z,13.40
2022-11-02T23:05:09.892Z,13.50
2022-11-02T23:10:40.717Z,13.50
2022-11-02T23:13:08.143Z,13.40
2022-11-02T23:15:37.328Z,13.40
2022-11-02T23:18:04.226Z,13.30
2022-11-02T23:20:33.957Z,13.40
2022-11-02T23:23:19.298Z,13.40
2022-11-02T23:25:55.522Z,13.30
2022-11-02T23:28:42.186Z,13.40
2022-11-02T23:31:28.028Z,13.40
2022-11-02T23:34:04.505Z,13.40
2022-11-02T23:36:31.344Z,13.40
2022-11-02T23:39:16.671Z,13.40
2022-11-02T23:41:43.735Z,13.40
2022-11-02T23:44:18.629Z,13.40
2022-11-02T23:46:52.344Z,13.40
2022-11-02T23:49:20.209Z,13.40
2022-11-02T23:52:05.600Z,13.30
2022-11-02T23:54:50.864Z,13.30
2022-11-02T23:57:18.596Z,13.40
2022-11-02T23:59:45.427Z,13.30
